Flight Track Log - Related Links

Times and Time Zones

All times are in EDT time to prevent confusion due to time zone crossing. See the EJA820 flight status page for this flight to view local times or setup timezone preferences in your user account.

Time Position Orientation Groundspeed Altitude Reporting Facility
EDT Latitude Longitude Course Direction KTS MPH feet Rate Location/Type
Sun 12:55:43 PM 42.4333 -87.8000 36° Northeast 187 215 2,900  Level KMKE
Sun 12:56:43 PM 42.4833 -87.7500 36° Northeast 237 273 4,700 1,920 Climbing KMKE
Sun 12:56:58 PM 42.4922 -87.7525 348° North 235 270 5,300 2,883 Climbing Chicago Center
Sun 12:58:00 PM 42.5611 -87.7542 359° North 246 283 8,400 3,097 Climbing Chicago Center
Sun 12:59:02 PM 42.6297 -87.7306 14° North 253 291 11,700 2,274 Climbing Chicago Center
Sun 01:00:04 PM 42.6992 -87.6958 20° North 265 305 13,100 661 Climbing Chicago Center
Sun 01:01:09 PM 42.7783 -87.5958 43° Northeast 351 404 13,100 -47 Level Chicago Center
Sun 01:02:11 PM 42.7783 -87.4658 90° East 346 398 13,000 -97 Descending Chicago Center
Sun 01:03:13 PM 42.7761 -87.3450 91° East 340 391 12,900 -48 Descending Chicago Center
Sun 01:04:15 PM 42.7722 -87.2167 92° East 340 391 12,900  Level Chicago Center
Sun 01:05:17 PM 42.7703 -87.0903 91° East 338 389 12,900 -823 Level Chicago Center
Sun 01:06:19 PM 42.7669 -86.9400 92° East 333 383 11,200 -968 Descending Chicago Center
Sun 01:07:21 PM 42.7631 -86.8233 93° East 313 360 10,900 -927 Descending Chicago Center
Sun 01:08:22 PM 42.7603 -86.7219 92° East 275 316 9,300 -2,146 Descending Chicago Center
Sun 01:09:24 PM 42.7586 -86.6189 91° East 275 316 6,500 -2,758 Descending Chicago Center
Sun 01:10:26 PM 42.7572 -86.5189 91° East 268 308 3,600 -1,935 Descending Chicago Center
Sun 01:11:28 PM 42.7642 -86.4103 85° East 250 288 2,500 -532 Descending Chicago Center
Sun 01:12:30 PM 42.7703 -86.3300 84° East 230 265 2,500  Level Chicago Center
Sun 01:13:32 PM 42.7575 -86.2467 102° East 228 262 2,500  Level Chicago Center
Sun 01:14:34 PM 42.7350 -86.1578 109° East 230 265 2,500  Level Chicago Center

Login

Don't have an account? Register now (free) for customized features, flight alerts, and more!